createdAt,value
2024-03-10T00:03:10.068Z,27.90
2024-03-10T00:06:36.273Z,26.20
2024-03-10T00:10:02.960Z,27.60
2024-03-10T00:13:29.564Z,26.90
2024-03-10T00:16:56.973Z,27.90
2024-03-10T00:20:23.634Z,27.20
2024-03-10T00:23:50.114Z,27.40
2024-03-10T00:27:17.021Z,26.80
2024-03-10T00:30:42.693Z,26.40
2024-03-10T00:34:09.662Z,26.20
2024-03-10T00:37:36.080Z,26.50
2024-03-10T00:41:01.918Z,27.80
2024-03-10T00:44:28.720Z,26.60
2024-03-10T00:47:56.353Z,28.00
2024-03-10T00:51:22.315Z,26.40
2024-03-10T00:54:49.008Z,26.90
2024-03-10T00:58:15.255Z,27.30
2024-03-10T01:01:41.467Z,27.10
2024-03-10T01:05:11.267Z,28.40
2024-03-10T01:08:37.742Z,28.80
2024-03-10T01:12:04.536Z,28.70
2024-03-10T01:15:33.377Z,28.60
2024-03-10T01:19:00.940Z,27.20
2024-03-10T01:22:27.483Z,28.90
2024-03-10T01:25:53.847Z,28.30
2024-03-10T01:29:20.218Z,27.90
2024-03-10T01:32:46.456Z,28.50
2024-03-10T01:36:12.730Z,28.10
2024-03-10T01:39:38.996Z,27.60
2024-03-10T01:43:07.115Z,28.00
2024-03-10T01:46:33.414Z,28.50
2024-03-10T01:49:59.944Z,28.30
2024-03-10T01:53:26.050Z,28.00
2024-03-10T01:56:54.627Z,28.00
2024-03-10T02:00:23.196Z,27.50
2024-03-10T02:03:51.089Z,27.60
2024-03-10T02:07:17.961Z,27.20
2024-03-10T02:10:47.045Z,26.30
2024-03-10T02:14:13.099Z,27.70
2024-03-10T02:17:39.458Z,28.10
2024-03-10T02:21:10.158Z,27.90
2024-03-10T02:24:40.022Z,27.80
2024-03-10T02:28:21.903Z,28.00
2024-03-10T02:32:19.159Z,27.30
2024-03-10T02:36:02.404Z,27.90
2024-03-10T02:40:00.488Z,28.10
2024-03-10T02:43:43.070Z,27.60
2024-03-10T02:47:15.881Z,28.40
2024-03-10T02:50:42.115Z,27.70
2024-03-10T02:54:09.479Z,27.40
2024-03-10T02:57:35.914Z,26.60
2024-03-10T03:01:01.691Z,27.20
2024-03-10T03:04:30.011Z,27.00
2024-03-10T03:07:57.394Z,26.50
2024-03-10T03:11:23.430Z,27.70
2024-03-10T03:14:49.256Z,27.40
2024-03-10T03:18:15.528Z,29.00
2024-03-10T03:21:41.938Z,28.10
2024-03-10T03:25:09.435Z,28.80
2024-03-10T03:28:35.633Z,27.30
2024-03-10T03:32:01.367Z,28.60
2024-03-10T03:35:27.964Z,29.10
2024-03-10T03:38:54.024Z,28.70
2024-03-10T03:42:20.470Z,29.00
2024-03-10T03:45:46.598Z,29.80
2024-03-10T03:49:12.644Z,27.00
2024-03-10T03:52:42.449Z,29.30
2024-03-10T03:56:10.523Z,29.20
2024-03-10T03:59:36.959Z,28.70
2024-03-10T04:03:03.062Z,28.70
2024-03-10T04:06:30.264Z,29.60
2024-03-10T04:09:57.928Z,28.80
2024-03-10T04:13:23.913Z,29.70
2024-03-10T04:16:50.477Z,27.30
2024-03-10T04:20:17.311Z,28.40
2024-03-10T04:23:44.009Z,29.10
2024-03-10T04:27:10.872Z,29.00
2024-03-10T04:30:37.385Z,29.60
2024-03-10T04:34:03.354Z,29.70
2024-03-10T04:37:30.060Z,28.90
2024-03-10T04:40:56.121Z,29.90
2024-03-10T04:44:22.461Z,28.00
2024-03-10T04:47:48.679Z,29.30
2024-03-10T04:51:15.825Z,29.40
2024-03-10T04:54:42.661Z,28.00
2024-03-10T04:58:09.732Z,30.30
2024-03-10T05:01:36.071Z,29.70
2024-03-10T05:05:04.811Z,30.30
2024-03-10T05:08:31.145Z,30.10
2024-03-10T05:11:57.367Z,30.00
2024-03-10T05:15:24.069Z,29.60
2024-03-10T05:18:50.202Z,29.80
2024-03-10T05:22:16.326Z,28.60
2024-03-10T05:25:42.459Z,29.10
2024-03-10T05:29:08.424Z,30.20
2024-03-10T05:32:34.530Z,30.20
2024-03-10T05:36:03.228Z,30.90
2024-03-10T05:39:29.113Z,30.50
2024-03-10T05:42:54.760Z,29.30
2024-03-10T05:46:20.895Z,30.70
2024-03-10T05:49:49.033Z,30.40
2024-03-10T05:53:15.457Z,30.20
2024-03-10T05:56:41.273Z,29.90
2024-03-10T06:00:15.855Z,29.20
2024-03-10T06:03:41.803Z,30.50
2024-03-10T06:07:08.242Z,31.70
2024-03-10T06:10:34.274Z,30.00
2024-03-10T06:14:00.469Z,30.80
2024-03-10T06:17:32.979Z,31.00
2024-03-10T06:21:17.256Z,30.80
2024-03-10T06:25:00.893Z,31.70
2024-03-10T06:31:51.019Z,31.10
2024-03-10T06:35:16.870Z,30.50
2024-03-10T06:38:44.132Z,31.90
2024-03-10T06:42:10.219Z,31.00
2024-03-10T06:45:36.459Z,30.60
2024-03-10T06:49:02.501Z,28.50
2024-03-10T06:52:28.414Z,30.90
2024-03-10T06:55:56.001Z,30.90
2024-03-10T06:59:24.326Z,29.10
2024-03-10T07:02:50.453Z,30.30
2024-03-10T07:06:23.115Z,29.00
2024-03-10T07:09:49.220Z,28.60
2024-03-10T07:13:15.263Z,29.40
2024-03-10T07:16:41.889Z,29.20
2024-03-10T07:20:11.914Z,29.30
2024-03-10T07:23:38.209Z,29.10
2024-03-10T07:27:04.497Z,29.40
2024-03-10T07:30:30.642Z,29.60
2024-03-10T07:33:56.442Z,28.40
2024-03-10T07:37:22.780Z,29.30
2024-03-10T07:40:53.642Z,29.10
2024-03-10T07:44:21.026Z,28.90
2024-03-10T07:47:48.606Z,30.10
2024-03-10T07:51:14.794Z,28.20
2024-03-10T07:54:40.826Z,27.30
2024-03-10T07:58:08.188Z,29.20
2024-03-10T08:01:34.453Z,28.00
2024-03-10T08:05:00.741Z,29.00
2024-03-10T08:08:27.062Z,27.60
2024-03-10T08:11:54.631Z,28.20
2024-03-10T08:15:20.995Z,27.90
2024-03-10T08:18:49.629Z,28.20
2024-03-10T08:22:17.175Z,28.00
2024-03-10T08:25:46.733Z,27.20
2024-03-10T08:29:13.460Z,26.60
2024-03-10T08:32:40.173Z,27.20
2024-03-10T08:36:10.516Z,27.10
2024-03-10T08:39:36.625Z,28.10
2024-03-10T08:43:02.662Z,27.50
2024-03-10T08:46:28.614Z,27.30
2024-03-10T08:49:54.583Z,26.90
2024-03-10T08:53:23.294Z,27.10
2024-03-10T08:56:51.080Z,26.50
2024-03-10T09:00:19.291Z,24.70
2024-03-10T09:03:45.092Z,25.40
2024-03-10T09:07:11.323Z,26.50
2024-03-10T09:10:44.608Z,25.30
2024-03-10T09:14:20.636Z,24.60
2024-03-10T09:17:47.382Z,24.30
2024-03-10T09:21:15.516Z,26.80
2024-03-10T09:24:44.090Z,25.40
2024-03-10T09:28:10.557Z,25.20
2024-03-10T09:31:38.941Z,26.00
2024-03-10T09:35:05.331Z,26.40
2024-03-10T09:38:31.488Z,25.30
2024-03-10T09:41:58.572Z,22.30
2024-03-10T09:45:27.603Z,23.50
2024-03-10T09:48:54.095Z,23.20
2024-03-10T09:52:21.051Z,22.60
2024-03-10T09:55:50.006Z,22.90
2024-03-10T09:59:25.804Z,22.10
2024-03-10T10:02:54.656Z,22.00
2024-03-10T10:06:24.467Z,22.10
2024-03-10T10:10:00.169Z,22.20
2024-03-10T10:13:28.289Z,22.30
2024-03-10T10:16:57.876Z,21.90
2024-03-10T10:20:26.707Z,22.80
2024-03-10T10:23:53.730Z,22.80
2024-03-10T10:27:19.753Z,22.40
2024-03-10T10:30:46.194Z,22.50
2024-03-10T10:34:16.972Z,21.60
2024-03-10T10:37:48.428Z,25.00
2024-03-10T10:41:15.081Z,23.30
2024-03-10T10:44:42.296Z,21.70
2024-03-10T10:48:11.135Z,22.30
2024-03-10T10:51:37.539Z,22.90
2024-03-10T10:55:03.673Z,21.70
2024-03-10T10:58:36.467Z,20.40
2024-03-10T11:02:21.419Z,20.30
2024-03-10T11:06:25.562Z,21.70
2024-03-10T11:09:52.375Z,20.10
2024-03-10T11:13:20.252Z,20.30
2024-03-10T11:16:47.274Z,20.60
2024-03-10T11:20:15.054Z,19.60
2024-03-10T11:23:49.544Z,20.60
2024-03-10T11:27:19.954Z,18.70
2024-03-10T11:30:52.813Z,19.10
2024-03-10T11:34:19.916Z,17.30
2024-03-10T11:37:47.119Z,19.20
2024-03-10T11:41:13.584Z,19.60
2024-03-10T11:44:39.824Z,18.40
2024-03-10T11:48:07.891Z,20.00
2024-03-10T11:51:36.533Z,18.90
2024-03-10T11:55:13.170Z,18.70
2024-03-10T11:58:40.051Z,19.10
2024-03-10T12:02:06.473Z,17.80
2024-03-10T12:05:33.246Z,17.70
2024-03-10T12:08:59.774Z,18.90
2024-03-10T12:12:33.966Z,18.50
2024-03-10T12:16:04.335Z,17.30
2024-03-10T12:19:31.057Z,16.60
2024-03-10T12:22:59.868Z,16.90
2024-03-10T12:26:30.235Z,16.10
2024-03-10T12:29:57.879Z,17.00
2024-03-10T12:33:24.042Z,16.40
2024-03-10T12:36:50.032Z,17.40
2024-03-10T12:40:17.814Z,16.10
2024-03-10T12:43:45.793Z,16.10
2024-03-10T12:47:12.629Z,16.30
2024-03-10T12:50:41.055Z,15.60
2024-03-10T12:54:08.302Z,15.80
2024-03-10T12:57:34.359Z,17.70
2024-03-10T13:01:00.060Z,16.50
2024-03-10T13:04:25.754Z,16.40
2024-03-10T13:07:51.938Z,17.00
2024-03-10T13:11:19.202Z,17.00
2024-03-10T13:14:45.470Z,17.30
2024-03-10T13:18:14.239Z,17.00
2024-03-10T13:21:41.436Z,17.80
2024-03-10T13:25:09.425Z,17.30
2024-03-10T13:28:36.010Z,17.70
2024-03-10T13:32:02.642Z,17.70
2024-03-10T13:35:29.049Z,16.40
2024-03-10T13:38:55.344Z,17.00
2024-03-10T13:42:21.302Z,16.60
2024-03-10T13:45:47.235Z,16.70
2024-03-10T13:49:14.078Z,16.20
2024-03-10T13:52:40.516Z,16.70
2024-03-10T13:56:07.080Z,16.10
2024-03-10T13:59:33.541Z,16.60
2024-03-10T14:03:03.520Z,16.50
2024-03-10T14:06:32.764Z,16.10
2024-03-10T14:09:59.274Z,15.60
2024-03-10T14:13:25.297Z,17.00
2024-03-10T14:16:52.341Z,15.90
2024-03-10T14:20:20.224Z,16.30
2024-03-10T14:23:46.615Z,16.20
2024-03-10T14:27:13.012Z,16.10
2024-03-10T14:30:41.628Z,15.50
2024-03-10T14:34:07.584Z,16.00
2024-03-10T14:37:36.126Z,15.10
2024-03-10T14:41:02.740Z,15.90
2024-03-10T14:44:28.910Z,15.80
2024-03-10T14:47:56.191Z,15.60
2024-03-10T14:51:23.513Z,15.00
2024-03-10T14:54:49.749Z,13.60
2024-03-10T14:58:16.003Z,14.30
2024-03-10T15:01:44.811Z,15.00
2024-03-10T15:05:14.358Z,14.20
2024-03-10T15:08:40.803Z,14.30
2024-03-10T15:12:08.480Z,13.90
2024-03-10T15:15:34.239Z,14.00
2024-03-10T15:19:00.476Z,15.00
2024-03-10T15:22:26.802Z,14.90
2024-03-10T15:25:55.580Z,14.30
2024-03-10T15:29:23.805Z,14.40
2024-03-10T15:32:51.846Z,14.60
2024-03-10T15:36:18.732Z,14.30
2024-03-10T15:39:46.386Z,14.10
2024-03-10T15:43:14.266Z,13.60
2024-03-10T15:46:41.064Z,13.90
2024-03-10T15:50:11.165Z,14.10
2024-03-10T15:53:37.582Z,13.40
2024-03-10T15:57:05.767Z,13.90
2024-03-10T16:00:32.182Z,14.50
2024-03-10T16:04:01.942Z,13.90
2024-03-10T16:07:28.161Z,14.60
2024-03-10T16:10:54.709Z,14.80
2024-03-10T16:14:21.660Z,14.40
2024-03-10T16:17:48.341Z,14.20
2024-03-10T16:21:19.541Z,13.60
2024-03-10T16:24:46.786Z,14.50
2024-03-10T16:28:12.947Z,13.40
2024-03-10T16:31:39.156Z,14.10
2024-03-10T16:35:05.609Z,14.70
2024-03-10T16:38:31.757Z,15.70
2024-03-10T16:41:58.643Z,14.00
2024-03-10T16:45:24.947Z,13.50
2024-03-10T16:48:51.111Z,15.20
2024-03-10T16:52:19.096Z,15.20
2024-03-10T16:55:49.045Z,14.70
2024-03-10T16:59:18.702Z,14.20
2024-03-10T17:02:46.119Z,14.00
2024-03-10T17:06:13.600Z,15.10
2024-03-10T17:09:40.144Z,13.60
2024-03-10T17:13:09.134Z,14.10
2024-03-10T17:16:35.751Z,13.60
2024-03-10T17:20:02.662Z,15.10
2024-03-10T17:23:29.205Z,16.50
2024-03-10T17:26:55.812Z,16.50
2024-03-10T17:30:22.268Z,16.30
2024-03-10T17:33:49.173Z,16.40
2024-03-10T17:37:16.546Z,23.90
2024-03-10T17:40:42.714Z,21.20
2024-03-10T17:44:09.055Z,16.60
2024-03-10T17:47:37.114Z,15.50
2024-03-10T17:51:06.024Z,14.30
2024-03-10T17:54:34.105Z,15.00
2024-03-10T17:58:01.772Z,15.90
2024-03-10T18:01:27.719Z,14.00
2024-03-10T18:04:54.757Z,15.80
2024-03-10T18:08:22.238Z,15.00
2024-03-10T18:11:50.118Z,14.70
2024-03-10T18:15:20.701Z,14.40
2024-03-10T18:18:48.678Z,13.60
2024-03-10T18:22:17.037Z,15.00
2024-03-10T18:25:45.071Z,15.20
2024-03-10T18:29:14.414Z,14.90
2024-03-10T18:32:42.709Z,14.80
2024-03-10T18:36:10.644Z,14.50
2024-03-10T18:39:37.960Z,14.30
2024-03-10T18:43:05.483Z,15.40
2024-03-10T18:46:33.204Z,15.00
2024-03-10T18:49:59.083Z,15.20
2024-03-10T18:53:25.601Z,15.40
2024-03-10T18:56:52.958Z,14.50
2024-03-10T19:00:19.129Z,15.00
2024-03-10T19:03:48.418Z,13.50
2024-03-10T19:07:17.007Z,14.80
2024-03-10T19:10:43.000Z,14.60
2024-03-10T19:14:09.280Z,15.00
2024-03-10T19:17:35.516Z,14.30
2024-03-10T19:21:04.374Z,14.20
2024-03-10T19:24:31.071Z,14.40
2024-03-10T19:27:56.843Z,13.60
2024-03-10T19:31:22.800Z,13.80
2024-03-10T19:34:48.693Z,13.60
2024-03-10T19:38:14.772Z,12.90
2024-03-10T19:41:41.273Z,13.60
2024-03-10T19:45:08.656Z,14.10
2024-03-10T19:48:34.731Z,12.60
2024-03-10T19:52:00.882Z,12.10
2024-03-10T19:55:27.017Z,12.40
2024-03-10T19:58:55.298Z,13.00
2024-03-10T20:02:21.147Z,12.30
2024-03-10T20:05:47.321Z,12.80
2024-03-10T20:09:18.031Z,12.40
2024-03-10T20:12:44.053Z,12.30
2024-03-10T20:16:10.837Z,12.60
2024-03-10T20:19:36.873Z,12.40
2024-03-10T20:23:02.995Z,12.00
2024-03-10T20:26:28.824Z,11.80
2024-03-10T20:29:54.497Z,12.20
2024-03-10T20:33:20.334Z,12.40
2024-03-10T20:36:46.501Z,12.50
2024-03-10T20:40:14.467Z,12.10
2024-03-10T20:43:40.401Z,12.20
2024-03-10T20:47:07.691Z,12.40
2024-03-10T20:50:34.473Z,12.80
2024-03-10T20:54:00.215Z,12.00
2024-03-10T20:57:25.919Z,12.00
2024-03-10T21:00:55.956Z,13.10
2024-03-10T21:04:22.062Z,13.10
2024-03-10T21:07:48.343Z,11.80
2024-03-10T21:11:14.841Z,12.10
2024-03-10T21:14:42.155Z,11.70
2024-03-10T21:18:09.577Z,11.50
2024-03-10T21:21:35.988Z,12.20
2024-03-10T21:25:02.196Z,12.40
2024-03-10T21:28:29.673Z,11.30
2024-03-10T21:31:55.551Z,11.90
2024-03-10T21:35:24.587Z,13.40
2024-03-10T21:38:51.998Z,13.30
2024-03-10T21:42:19.523Z,11.80
2024-03-10T21:45:46.656Z,12.30
2024-03-10T21:49:12.864Z,12.40
2024-03-10T21:52:39.384Z,12.40
2024-03-10T21:56:06.370Z,11.70
2024-03-10T21:59:32.164Z,11.70
2024-03-10T22:02:58.491Z,12.50
2024-03-10T22:06:24.100Z,12.20
2024-03-10T22:09:50.268Z,11.20
2024-03-10T22:13:15.778Z,12.80
2024-03-10T22:16:41.945Z,13.00
2024-03-10T22:20:13.878Z,11.50
2024-03-10T22:23:39.644Z,12.90
2024-03-10T22:27:06.323Z,13.90
2024-03-10T22:30:33.155Z,12.60
2024-03-10T22:33:58.992Z,12.10
2024-03-10T22:37:25.760Z,12.40
2024-03-10T22:40:53.200Z,12.40
2024-03-10T22:44:19.883Z,12.50
2024-03-10T22:47:47.224Z,12.70
2024-03-10T22:51:13.152Z,12.70
2024-03-10T22:54:39.294Z,12.20
2024-03-10T22:58:06.008Z,12.40
2024-03-10T23:01:33.951Z,11.80
2024-03-10T23:05:01.513Z,12.00
2024-03-10T23:08:27.372Z,12.30
2024-03-10T23:11:53.996Z,12.60
2024-03-10T23:15:22.380Z,13.10
2024-03-10T23:18:51.240Z,13.70
2024-03-10T23:22:18.001Z,13.00
2024-03-10T23:25:44.048Z,13.90
2024-03-10T23:29:10.067Z,13.40
2024-03-10T23:32:36.290Z,12.90
2024-03-10T23:36:04.493Z,12.90
2024-03-10T23:39:32.446Z,12.60
2024-03-10T23:42:58.823Z,13.10
2024-03-10T23:46:25.221Z,14.00
2024-03-10T23:49:50.808Z,13.60
2024-03-10T23:53:16.899Z,13.30
2024-03-10T23:56:42.924Z,12.80
